sensor_id;sensor_type;location;lat;lon;timestamp;pressure;altitude;pressure_sealevel;temperature;humidity
25664;BME280;13522;50.018;20.014;2022-09-20T00:01:33;98566.95;;;9.37;100.00
25664;BME280;13522;50.018;20.014;2022-09-20T00:04:45;98570.59;;;9.36;100.00
25664;BME280;13522;50.018;20.014;2022-09-20T00:07:58;98577.55;;;9.37;100.00
25664;BME280;13522;50.018;20.014;2022-09-20T00:11:12;98573.94;;;9.38;100.00
25664;BME280;13522;50.018;20.014;2022-09-20T00:14:26;98579.78;;;9.42;100.00
25664;BME280;13522;50.018;20.014;2022-09-20T00:17:37;98575.33;;;9.42;100.00
25664;BME280;13522;50.018;20.014;2022-09-20T00:20:50;98573.38;;;9.44;100.00
25664;BME280;13522;50.018;20.014;2022-09-20T00:24:03;98572.38;;;9.45;100.00
25664;BME280;13522;50.018;20.014;2022-09-20T00:27:15;98582.98;;;9.45;100.00
25664;BME280;13522;50.018;20.014;2022-09-20T00:30:27;98579.23;;;9.48;100.00
25664;BME280;13522;50.018;20.014;2022-09-20T00:33:39;98583.53;;;9.49;100.00
25664;BME280;13522;50.018;20.014;2022-09-20T00:37:07;98579.77;;;9.51;100.00
25664;BME280;13522;50.018;20.014;2022-09-20T00:40:20;98583.13;;;9.53;100.00
25664;BME280;13522;50.018;20.014;2022-09-20T00:43:38;98580.47;;;9.53;100.00
25664;BME280;13522;50.018;20.014;2022-09-20T00:46:52;98576.70;;;9.56;100.00
25664;BME280;13522;50.018;20.014;2022-09-20T00:50:11;98589.12;;;9.55;100.00
25664;BME280;13522;50.018;20.014;2022-09-20T00:53:30;98580.90;;;9.58;100.00
25664;BME280;13522;50.018;20.014;2022-09-20T00:56:43;98584.52;;;9.57;100.00
25664;BME280;13522;50.018;20.014;2022-09-20T00:59:55;98580.75;;;9.60;100.00
25664;BME280;13522;50.018;20.014;2022-09-20T01:03:09;98585.06;;;9.61;100.00
25664;BME280;13522;50.018;20.014;2022-09-20T01:06:22;98584.09;;;9.62;100.00
25664;BME280;13522;50.018;20.014;2022-09-20T01:09:37;98580.60;;;9.61;100.00
25664;BME280;13522;50.018;20.014;2022-09-20T01:12:49;98578.95;;;9.60;100.00
25664;BME280;13522;50.018;20.014;2022-09-20T01:16:04;98584.80;;;9.64;100.00
25664;BME280;13522;50.018;20.014;2022-09-20T01:19:25;98585.64;;;9.65;100.00
25664;BME280;13522;50.018;20.014;2022-09-20T01:22:39;98582.53;;;9.69;100.00
25664;BME280;13522;50.018;20.014;2022-09-20T01:26:13;98587.00;;;9.69;100.00
25664;BME280;13522;50.018;20.014;2022-09-20T01:33:20;98581.00;;;9.67;100.00
25664;BME280;13522;50.018;20.014;2022-09-20T01:36:38;98576.27;;;9.70;100.00
25664;BME280;13522;50.018;20.014;2022-09-20T01:40:00;98581.27;;;9.73;100.00
25664;BME280;13522;50.018;20.014;2022-09-20T01:43:23;98577.93;;;9.71;100.00
25664;BME280;13522;50.018;20.014;2022-09-20T01:46:38;98578.47;;;9.75;100.00
25664;BME280;13522;50.018;20.014;2022-09-20T01:49:56;98581.01;;;9.76;100.00
25664;BME280;13522;50.018;20.014;2022-09-20T01:53:34;98585.47;;;9.76;100.00
25664;BME280;13522;50.018;20.014;2022-09-20T02:05:30;98578.90;;;9.80;100.00
25664;BME280;13522;50.018;20.014;2022-09-20T02:09:19;98590.20;;;9.82;100.00
25664;BME280;13522;50.018;20.014;2022-09-20T02:12:55;98590.20;;;9.82;100.00
25664;BME280;13522;50.018;20.014;2022-09-20T02:16:29;98589.20;;;9.83;100.00
25664;BME280;13522;50.018;20.014;2022-09-20T02:20:06;98578.48;;;9.84;100.00
25664;BME280;13522;50.018;20.014;2022-09-20T02:23:36;98585.59;;;9.84;100.00
25664;BME280;13522;50.018;20.014;2022-09-20T02:27:00;98593.55;;;9.84;100.00
25664;BME280;13522;50.018;20.014;2022-09-20T02:30:27;98589.20;;;9.83;100.00
25664;BME280;13522;50.018;20.014;2022-09-20T02:34:10;98588.94;;;9.86;100.00
25664;BME280;13522;50.018;20.014;2022-09-20T02:41:57;98605.97;;;9.83;100.00
25664;BME280;13522;50.018;20.014;2022-09-20T02:45:15;98605.97;;;9.83;100.00
25664;BME280;13522;50.018;20.014;2022-09-20T02:48:33;98616.42;;;9.85;100.00
25664;BME280;13522;50.018;20.014;2022-09-20T02:51:50;98606.81;;;9.84;100.00
25664;BME280;13522;50.018;20.014;2022-09-20T02:55:04;98611.13;;;9.85;100.00
25664;BME280;13522;50.018;20.014;2022-09-20T02:58:32;98608.62;;;9.83;100.00
25664;BME280;13522;50.018;20.014;2022-09-20T03:01:52;98615.73;;;9.83;100.00
25664;BME280;13522;50.018;20.014;2022-09-20T03:05:12;98621.88;;;9.83;100.00
25664;BME280;13522;50.018;20.014;2022-09-20T03:08:34;98616.58;;;9.83;100.00
25664;BME280;13522;50.018;20.014;2022-09-20T03:11:56;98616.31;;;9.86;100.00
25664;BME280;13522;50.018;20.014;2022-09-20T03:15:21;98620.77;;;9.86;100.00
25664;BME280;13522;50.018;20.014;2022-09-20T03:18:39;98624.11;;;9.88;100.00
25664;BME280;13522;50.018;20.014;2022-09-20T03:21:58;98622.42;;;9.87;100.00
25664;BME280;13522;50.018;20.014;2022-09-20T03:25:37;98610.16;;;9.86;100.00
25664;BME280;13522;50.018;20.014;2022-09-20T03:28:58;98622.31;;;9.88;100.00
25664;BME280;13522;50.018;20.014;2022-09-20T03:32:21;98616.00;;;9.89;100.00
25664;BME280;13522;50.018;20.014;2022-09-20T03:35:44;98622.42;;;9.87;100.00
25664;BME280;13522;50.018;20.014;2022-09-20T03:39:18;98617.12;;;9.87;100.00
25664;BME280;13522;50.018;20.014;2022-09-20T03:42:41;98626.07;;;9.86;100.00
25664;BME280;13522;50.018;20.014;2022-09-20T03:46:11;98628.88;;;9.84;100.00
25664;BME280;13522;50.018;20.014;2022-09-20T03:53:24;98638.64;;;9.84;100.00
25664;BME280;13522;50.018;20.014;2022-09-20T03:59:56;98638.91;;;9.81;100.00
25664;BME280;13522;50.018;20.014;2022-09-20T04:03:27;98642.40;;;9.81;100.00
25664;BME280;13522;50.018;20.014;2022-09-20T04:06:55;98648.25;;;9.85;100.00
25664;BME280;13522;50.018;20.014;2022-09-20T04:10:31;98656.21;;;9.85;100.00
25664;BME280;13522;50.018;20.014;2022-09-20T04:13:49;98645.60;;;9.85;100.00
25664;BME280;13522;50.018;20.014;2022-09-20T04:17:10;98657.91;;;9.86;100.00
25664;BME280;13522;50.018;20.014;2022-09-20T04:20:32;98654.41;;;9.85;100.00
25664;BME280;13522;50.018;20.014;2022-09-20T04:23:53;98652.86;;;9.83;100.00
25664;BME280;13522;50.018;20.014;2022-09-20T04:27:13;98659.31;;;9.80;100.00
25664;BME280;13522;50.018;20.014;2022-09-20T04:30:30;98661.81;;;9.82;100.00
25664;BME280;13522;50.018;20.014;2022-09-20T04:33:49;98661.81;;;9.82;100.00
25664;BME280;13522;50.018;20.014;2022-09-20T04:37:15;98657.47;;;9.81;100.00
25664;BME280;13522;50.018;20.014;2022-09-20T04:40:47;98665.42;;;9.81;100.00
25664;BME280;13522;50.018;20.014;2022-09-20T04:44:46;98669.07;;;9.80;100.00
25664;BME280;13522;50.018;20.014;2022-09-20T04:48:46;98666.57;;;9.78;100.00
25664;BME280;13522;50.018;20.014;2022-09-20T04:56:01;98670.61;;;9.82;100.00
25664;BME280;13522;50.018;20.014;2022-09-20T04:59:23;98681.34;;;9.81;100.00
25664;BME280;13522;50.018;20.014;2022-09-20T05:06:42;98681.63;;;9.87;100.00
25664;BME280;13522;50.018;20.014;2022-09-20T05:13:59;98689.44;;;9.89;100.00
25664;BME280;13522;50.018;20.014;2022-09-20T05:17:31;98693.78;;;9.90;100.00
25664;BME280;13522;50.018;20.014;2022-09-20T05:21:00;98698.39;;;9.88;100.00
25664;BME280;13522;50.018;20.014;2022-09-20T05:24:32;98699.93;;;9.90;100.00
25664;BME280;13522;50.018;20.014;2022-09-20T05:27:55;98698.09;;;9.91;100.00
25664;BME280;13522;50.018;20.014;2022-09-20T05:31:13;98695.32;;;9.92;100.00
25664;BME280;13522;50.018;20.014;2022-09-20T05:34:32;98702.13;;;9.95;100.00
25664;BME280;13522;50.018;20.014;2022-09-20T05:37:50;98704.78;;;9.95;100.00
25664;BME280;13522;50.018;20.014;2022-09-20T05:41:11;98702.69;;;9.98;100.00
25664;BME280;13522;50.018;20.014;2022-09-20T05:44:36;98702.57;;;10.00;100.00
25664;BME280;13522;50.018;20.014;2022-09-20T05:47:54;98714.84;;;10.01;100.00
25664;BME280;13522;50.018;20.014;2022-09-20T05:51:12;98712.33;;;9.99;100.00
25664;BME280;13522;50.018;20.014;2022-09-20T05:54:44;98711.48;;;9.99;100.00
25664;BME280;13522;50.018;20.014;2022-09-20T05:58:54;98717.34;;;10.02;100.00
25664;BME280;13522;50.018;20.014;2022-09-20T06:02:21;98720.15;;;10.01;100.00
25664;BME280;13522;50.018;20.014;2022-09-20T06:05:45;98719.73;;;10.05;100.00
25664;BME280;13522;50.018;20.014;2022-09-20T06:09:20;98719.88;;;10.04;100.00
25664;BME280;13522;50.018;20.014;2022-09-20T06:12:52;98715.97;;;10.08;100.00
25664;BME280;13522;50.018;20.014;2022-09-20T06:16:11;98721.01;;;10.11;100.00
25664;BME280;13522;50.018;20.014;2022-09-20T06:19:33;98725.75;;;10.17;100.00
25664;BME280;13522;50.018;20.014;2022-09-20T06:22:52;98730.80;;;10.20;100.00
25664;BME280;13522;50.018;20.014;2022-09-20T06:26:09;98734.14;;;10.22;100.00
25664;BME280;13522;50.018;20.014;2022-09-20T06:29:28;98730.50;;;10.23;100.00
25664;BME280;13522;50.018;20.014;2022-09-20T06:32:55;98737.20;;;10.27;100.00
25664;BME280;13522;50.018;20.014;2022-09-20T06:36:11;98734.69;;;10.25;100.00
25664;BME280;13522;50.018;20.014;2022-09-20T06:54:20;98750.47;;;10.27;100.00
25664;BME280;13522;50.018;20.014;2022-09-20T06:57:47;98749.22;;;10.21;100.00
25664;BME280;13522;50.018;20.014;2022-09-20T07:01:00;98756.34;;;10.21;100.00
25664;BME280;13522;50.018;20.014;2022-09-20T07:04:16;98757.33;;;10.20;100.00
25664;BME280;13522;50.018;20.014;2022-09-20T07:37:22;98789.88;;;10.97;100.00
25664;BME280;13522;50.018;20.014;2022-09-20T07:40:36;98790.30;;;10.92;100.00
25664;BME280;13522;50.018;20.014;2022-09-20T07:43:48;98790.14;;;10.94;100.00
25664;BME280;13522;50.018;20.014;2022-09-20T07:50:18;98806.63;;;10.97;100.00
25664;BME280;13522;50.018;20.014;2022-09-20T07:56:45;98807.59;;;11.06;100.00
25664;BME280;13522;50.018;20.014;2022-09-20T07:59:57;98798.13;;;11.30;100.00
25664;BME280;13522;50.018;20.014;2022-09-20T08:03:11;98814.31;;;11.37;100.00
25664;BME280;13522;50.018;20.014;2022-09-20T08:06:23;98806.70;;;11.52;100.00
25664;BME280;13522;50.018;20.014;2022-09-20T08:09:35;98812.80;;;11.62;100.00
25664;BME280;13522;50.018;20.014;2022-09-20T08:12:47;98811.33;;;11.77;100.00
25664;BME280;13522;50.018;20.014;2022-09-20T08:16:06;98805.86;;;12.92;100.00
25664;BME280;13522;50.018;20.014;2022-09-20T08:19:21;98803.73;;;13.63;100.00
25664;BME280;13522;50.018;20.014;2022-09-20T08:22:34;98803.03;;;13.53;100.00
25664;BME280;13522;50.018;20.014;2022-09-20T08:25:47;98813.24;;;13.24;100.00
25664;BME280;13522;50.018;20.014;2022-09-20T08:29:00;98814.86;;;12.91;100.00
25664;BME280;13522;50.018;20.014;2022-09-20T08:32:12;98815.98;;;12.63;100.00
25664;BME280;13522;50.018;20.014;2022-09-20T08:35:24;98824.14;;;12.61;100.00
25664;BME280;13522;50.018;20.014;2022-09-20T08:38:36;98822.16;;;12.63;100.00
25664;BME280;13522;50.018;20.014;2022-09-20T08:41:53;98826.88;;;12.69;100.00
25664;BME280;13522;50.018;20.014;2022-09-20T08:45:12;98819.45;;;12.81;100.00
25664;BME280;13522;50.018;20.014;2022-09-20T08:48:30;98818.45;;;12.82;100.00
25664;BME280;13522;50.018;20.014;2022-09-20T08:51:43;98822.39;;;12.52;100.00
25664;BME280;13522;50.018;20.014;2022-09-20T08:54:58;98828.66;;;12.26;100.00
25664;BME280;13522;50.018;20.014;2022-09-20T08:58:11;98830.75;;;12.04;100.00
25664;BME280;13522;50.018;20.014;2022-09-20T09:01:25;98831.31;;;12.08;100.00
25664;BME280;13522;50.018;20.014;2022-09-20T09:04:38;98826.68;;;12.10;100.00
25664;BME280;13522;50.018;20.014;2022-09-20T09:07:50;98828.13;;;12.40;100.00
25664;BME280;13522;50.018;20.014;2022-09-20T09:11:06;98827.35;;;12.47;100.00
25664;BME280;13522;50.018;20.014;2022-09-20T09:14:25;98825.05;;;12.52;100.00
25664;BME280;13522;50.018;20.014;2022-09-20T09:17:58;98818.31;;;12.83;100.00
25664;BME280;13522;50.018;20.014;2022-09-20T09:21:17;98806.43;;;13.29;98.82
25664;BME280;13522;50.018;20.014;2022-09-20T09:24:30;98794.67;;;15.10;89.75
25664;BME280;13522;50.018;20.014;2022-09-20T09:27:53;98802.27;;;14.50;90.13
25664;BME280;13522;50.018;20.014;2022-09-20T09:31:22;98801.55;;;14.08;91.99
25664;BME280;13522;50.018;20.014;2022-09-20T09:34:35;98798.42;;;14.45;89.42
25664;BME280;13522;50.018;20.014;2022-09-20T09:37:54;98784.47;;;15.69;84.51
25664;BME280;13522;50.018;20.014;2022-09-20T09:41:18;98775.73;;;17.31;82.09
25664;BME280;13522;50.018;20.014;2022-09-20T09:44:34;98774.13;;;18.59;76.23
25664;BME280;13522;50.018;20.014;2022-09-20T09:47:46;98765.63;;;19.11;69.26
25664;BME280;13522;50.018;20.014;2022-09-20T09:51:12;98764.14;;;19.76;68.87
25664;BME280;13522;50.018;20.014;2022-09-20T09:54:26;98762.47;;;20.75;64.84
25664;BME280;13522;50.018;20.014;2022-09-20T09:57:45;98752.06;;;20.98;62.24
25664;BME280;13522;50.018;20.014;2022-09-20T10:01:01;98755.38;;;20.22;62.81
25664;BME280;13522;50.018;20.014;2022-09-20T10:04:19;98761.55;;;19.55;66.48
25664;BME280;13522;50.018;20.014;2022-09-20T10:07:36;98759.64;;;18.39;68.86
25664;BME280;13522;50.018;20.014;2022-09-20T10:10:58;98759.83;;;19.14;66.77
25664;BME280;13522;50.018;20.014;2022-09-20T10:14:21;98770.20;;;18.19;68.16
25664;BME280;13522;50.018;20.014;2022-09-20T10:17:46;98775.56;;;17.33;73.72
25664;BME280;13522;50.018;20.014;2022-09-20T10:21:14;98782.27;;;16.25;79.90
25664;BME280;13522;50.018;20.014;2022-09-20T10:24:37;98796.72;;;14.92;89.56
25664;BME280;13522;50.018;20.014;2022-09-20T10:28:00;98799.89;;;14.23;95.13
25664;BME280;13522;50.018;20.014;2022-09-20T10:31:23;98803.97;;;13.36;99.29
25664;BME280;13522;50.018;20.014;2022-09-20T10:35:01;98805.84;;;12.66;100.00
25664;BME280;13522;50.018;20.014;2022-09-20T10:38:26;98805.81;;;12.41;100.00
25664;BME280;13522;50.018;20.014;2022-09-20T10:41:49;98813.03;;;12.48;100.00
25664;BME280;13522;50.018;20.014;2022-09-20T10:45:21;98809.77;;;12.37;100.00
25664;BME280;13522;50.018;20.014;2022-09-20T10:48:40;98805.14;;;12.03;100.00
25664;BME280;13522;50.018;20.014;2022-09-20T10:52:04;98808.48;;;11.88;100.00
25664;BME280;13522;50.018;20.014;2022-09-20T10:55:33;98809.61;;;11.85;100.00
25664;BME280;13522;50.018;20.014;2022-09-20T10:59:05;98825.64;;;11.76;100.00
25664;BME280;13522;50.018;20.014;2022-09-20T11:02:43;98824.55;;;11.69;100.00
25664;BME280;13522;50.018;20.014;2022-09-20T11:06:06;98820.41;;;11.57;100.00
25664;BME280;13522;50.018;20.014;2022-09-20T11:09:23;98825.95;;;11.63;100.00
25664;BME280;13522;50.018;20.014;2022-09-20T11:12:41;98824.64;;;11.77;100.00
25664;BME280;13522;50.018;20.014;2022-09-20T11:15:59;98821.09;;;11.86;100.00
25664;BME280;13522;50.018;20.014;2022-09-20T11:19:18;98825.50;;;11.95;100.00
25664;BME280;13522;50.018;20.014;2022-09-20T11:22:36;98811.84;;;13.12;100.00
25664;BME280;13522;50.018;20.014;2022-09-20T11:25:54;98806.25;;;14.30;100.00
25664;BME280;13522;50.018;20.014;2022-09-20T11:29:14;98797.39;;;14.86;100.00
25664;BME280;13522;50.018;20.014;2022-09-20T11:32:31;98794.41;;;15.52;100.00
25664;BME280;13522;50.018;20.014;2022-09-20T11:35:49;98791.95;;;16.04;100.00
25664;BME280;13522;50.018;20.014;2022-09-20T11:39:08;98786.28;;;16.44;95.71
25664;BME280;13522;50.018;20.014;2022-09-20T11:42:25;98793.17;;;16.84;93.48
25664;BME280;13522;50.018;20.014;2022-09-20T11:45:37;98781.20;;;17.09;88.91
25664;BME280;13522;50.018;20.014;2022-09-20T11:48:53;98780.44;;;17.73;91.00
25664;BME280;13522;50.018;20.014;2022-09-20T11:52:35;98778.14;;;17.70;79.80
25664;BME280;13522;50.018;20.014;2022-09-20T11:55:55;98779.91;;;17.05;83.05
25664;BME280;13522;50.018;20.014;2022-09-20T11:59:20;98786.38;;;16.59;90.54
25664;BME280;13522;50.018;20.014;2022-09-20T12:02:35;98781.59;;;16.69;91.65
25664;BME280;13522;50.018;20.014;2022-09-20T12:05:56;98782.17;;;16.79;87.03
25664;BME280;13522;50.018;20.014;2022-09-20T12:09:22;98782.78;;;17.32;85.38
25664;BME280;13522;50.018;20.014;2022-09-20T12:12:36;98782.42;;;17.50;82.30
25664;BME280;13522;50.018;20.014;2022-09-20T12:15:57;98772.69;;;17.49;82.42
25664;BME280;13522;50.018;20.014;2022-09-20T12:19:15;98781.72;;;18.13;77.96
25664;BME280;13522;50.018;20.014;2022-09-20T12:22:43;98791.13;;;17.52;72.00
25664;BME280;13522;50.018;20.014;2022-09-20T12:26:06;98791.11;;;17.23;77.40
25664;BME280;13522;50.018;20.014;2022-09-20T12:30:05;98782.33;;;17.58;78.35
25664;BME280;13522;50.018;20.014;2022-09-20T12:33:26;98782.48;;;17.71;75.57
25664;BME280;13522;50.018;20.014;2022-09-20T12:36:41;98771.68;;;18.00;73.05
25664;BME280;13522;50.018;20.014;2022-09-20T12:39:55;98769.37;;;18.18;68.66
25664;BME280;13522;50.018;20.014;2022-09-20T12:43:16;98770.84;;;18.00;68.76
25664;BME280;13522;50.018;20.014;2022-09-20T12:46:50;98776.56;;;17.61;69.78
25664;BME280;13522;50.018;20.014;2022-09-20T12:50:11;98770.36;;;17.46;74.21
25664;BME280;13522;50.018;20.014;2022-09-20T12:53:39;98766.11;;;17.22;73.25
25664;BME280;13522;50.018;20.014;2022-09-20T12:56:51;98763.88;;;17.11;73.12
25664;BME280;13522;50.018;20.014;2022-09-20T13:00:06;98767.87;;;17.01;74.44
25664;BME280;13522;50.018;20.014;2022-09-20T13:03:31;98769.55;;;17.31;78.39
25664;BME280;13522;50.018;20.014;2022-09-20T13:06:44;98767.48;;;17.48;71.10
25664;BME280;13522;50.018;20.014;2022-09-20T13:09:56;98774.53;;;17.05;72.45
25664;BME280;13522;50.018;20.014;2022-09-20T13:13:24;98771.36;;;16.87;76.37
25664;BME280;13522;50.018;20.014;2022-09-20T13:16:46;98784.47;;;16.82;71.73
25664;BME280;13522;50.018;20.014;2022-09-20T13:20:02;98788.08;;;16.74;72.82
25664;BME280;13522;50.018;20.014;2022-09-20T13:23:22;98787.27;;;16.74;73.87
25664;BME280;13522;50.018;20.014;2022-09-20T13:29:39;98813.14;;;15.52;81.30
25664;BME280;13522;50.018;20.014;2022-09-20T13:32:53;98817.27;;;14.84;80.40
25664;BME280;13522;50.018;20.014;2022-09-20T13:36:07;98813.97;;;14.57;81.02
25664;BME280;13522;50.018;20.014;2022-09-20T13:39:28;98820.97;;;14.50;83.34
25664;BME280;13522;50.018;20.014;2022-09-20T13:42:46;98811.30;;;14.49;83.17
25664;BME280;13522;50.018;20.014;2022-09-20T13:46:07;98812.95;;;14.50;86.29
25664;BME280;13522;50.018;20.014;2022-09-20T13:49:21;98819.98;;;14.75;83.93
25664;BME280;13522;50.018;20.014;2022-09-20T13:52:42;98804.72;;;15.00;79.89
25664;BME280;13522;50.018;20.014;2022-09-20T13:55:56;98809.20;;;15.16;75.01
25664;BME280;13522;50.018;20.014;2022-09-20T14:02:18;98812.27;;;14.89;77.76
25664;BME280;13522;50.018;20.014;2022-09-20T14:11:32;98810.63;;;14.47;77.28
25664;BME280;13522;50.018;20.014;2022-09-20T14:14:46;98815.12;;;14.31;80.78
25664;BME280;13522;50.018;20.014;2022-09-20T14:18:01;98814.95;;;14.40;79.91
25664;BME280;13522;50.018;20.014;2022-09-20T14:21:19;98815.80;;;14.49;79.30
25664;BME280;13522;50.018;20.014;2022-09-20T14:27:33;98815.63;;;14.66;80.09
25664;BME280;13522;50.018;20.014;2022-09-20T14:30:48;98820.66;;;14.69;79.44
25664;BME280;13522;50.018;20.014;2022-09-20T14:34:01;98814.96;;;14.64;80.83
25664;BME280;13522;50.018;20.014;2022-09-20T14:37:17;98819.31;;;14.57;79.25
25664;BME280;13522;50.018;20.014;2022-09-20T14:43:34;98817.31;;;14.59;80.14
25664;BME280;13522;50.018;20.014;2022-09-20T14:46:47;98824.98;;;14.54;82.02
25664;BME280;13522;50.018;20.014;2022-09-20T14:49:59;98835.66;;;14.38;79.23
25664;BME280;13522;50.018;20.014;2022-09-20T14:53:30;98826.65;;;14.31;80.96
25664;BME280;13522;50.018;20.014;2022-09-20T14:56:47;98841.30;;;14.27;82.53
25664;BME280;13522;50.018;20.014;2022-09-20T15:00:06;98835.25;;;14.09;84.11
25664;BME280;13522;50.018;20.014;2022-09-20T15:03:25;98846.59;;;14.03;85.74
25664;BME280;13522;50.018;20.014;2022-09-20T15:06:38;98842.55;;;13.91;87.04
25664;BME280;13522;50.018;20.014;2022-09-20T15:09:51;98848.87;;;13.82;85.44
25664;BME280;13522;50.018;20.014;2022-09-20T15:13:04;98850.19;;;13.78;86.27
25664;BME280;13522;50.018;20.014;2022-09-20T15:16:18;98844.45;;;13.65;86.50
25664;BME280;13522;50.018;20.014;2022-09-20T15:19:33;98857.24;;;13.53;87.56
25664;BME280;13522;50.018;20.014;2022-09-20T15:22:45;98851.69;;;13.39;90.33
25664;BME280;13522;50.018;20.014;2022-09-20T15:25:58;98857.95;;;13.30;89.21
25664;BME280;13522;50.018;20.014;2022-09-20T15:29:14;98861.63;;;13.29;88.54
25664;BME280;13522;50.018;20.014;2022-09-20T15:32:26;98869.06;;;13.17;87.45
25664;BME280;13522;50.018;20.014;2022-09-20T15:35:39;98862.50;;;13.12;87.02
25664;BME280;13522;50.018;20.014;2022-09-20T15:38:53;98865.11;;;13.03;86.96
25664;BME280;13522;50.018;20.014;2022-09-20T15:42:06;98864.14;;;13.04;87.63
25664;BME280;13522;50.018;20.014;2022-09-20T15:45:18;98872.20;;;13.13;86.56
25664;BME280;13522;50.018;20.014;2022-09-20T15:48:32;98879.08;;;13.23;88.93
25664;BME280;13522;50.018;20.014;2022-09-20T15:51:44;98881.11;;;13.29;89.87
25664;BME280;13522;50.018;20.014;2022-09-20T15:54:57;98882.17;;;13.36;86.06
25664;BME280;13522;50.018;20.014;2022-09-20T15:58:10;98877.00;;;13.35;86.00
25664;BME280;13522;50.018;20.014;2022-09-20T16:01:22;98879.92;;;13.24;86.37
25664;BME280;13522;50.018;20.014;2022-09-20T16:04:34;98873.17;;;13.12;87.54
25664;BME280;13522;50.018;20.014;2022-09-20T16:07:46;98872.82;;;13.07;87.65
25664;BME280;13522;50.018;20.014;2022-09-20T16:10:59;98879.00;;;13.07;88.25
25664;BME280;13522;50.018;20.014;2022-09-20T16:14:12;98892.07;;;13.00;87.85
25664;BME280;13522;50.018;20.014;2022-09-20T16:17:24;98894.97;;;12.89;89.01
25664;BME280;13522;50.018;20.014;2022-09-20T16:20:47;98895.74;;;12.82;90.22
25664;BME280;13522;50.018;20.014;2022-09-20T16:23:59;98898.50;;;12.72;91.14
25664;BME280;13522;50.018;20.014;2022-09-20T16:27:12;98908.56;;;12.61;92.11
25664;BME280;13522;50.018;20.014;2022-09-20T16:30:25;98919.58;;;12.48;93.17
25664;BME280;13522;50.018;20.014;2022-09-20T16:33:37;98925.23;;;12.45;93.89
25664;BME280;13522;50.018;20.014;2022-09-20T16:36:51;98929.47;;;12.38;96.16
25664;BME280;13522;50.018;20.014;2022-09-20T16:40:05;98926.88;;;12.29;97.17
25664;BME280;13522;50.018;20.014;2022-09-20T16:43:21;98943.29;;;12.24;98.30
25664;BME280;13522;50.018;20.014;2022-09-20T16:46:35;98935.52;;;12.13;99.49
25664;BME280;13522;50.018;20.014;2022-09-20T16:49:49;98938.09;;;12.05;100.00
25664;BME280;13522;50.018;20.014;2022-09-20T16:53:04;98935.05;;;12.00;100.00
25664;BME280;13522;50.018;20.014;2022-09-20T16:56:22;98933.34;;;11.99;100.00
25664;BME280;13522;50.018;20.014;2022-09-20T16:59:35;98942.92;;;11.92;100.00
25664;BME280;13522;50.018;20.014;2022-09-20T17:02:49;98941.59;;;11.78;100.00
25664;BME280;13522;50.018;20.014;2022-09-20T17:06:04;98950.70;;;11.76;100.00
25664;BME280;13522;50.018;20.014;2022-09-20T17:09:17;98961.34;;;11.76;100.00
25664;BME280;13522;50.018;20.014;2022-09-20T17:12:30;98969.59;;;11.73;100.00
25664;BME280;13522;50.018;20.014;2022-09-20T17:15:45;98976.88;;;11.71;100.00
25664;BME280;13522;50.018;20.014;2022-09-20T17:18:59;98987.67;;;11.69;100.00
25664;BME280;13522;50.018;20.014;2022-09-20T17:22:14;98989.80;;;11.66;100.00
25664;BME280;13522;50.018;20.014;2022-09-20T17:25:27;98993.84;;;11.60;100.00
25664;BME280;13522;50.018;20.014;2022-09-20T17:28:42;99002.64;;;11.61;100.00
25664;BME280;13522;50.018;20.014;2022-09-20T17:31:56;98999.59;;;11.56;100.00
25664;BME280;13522;50.018;20.014;2022-09-20T17:35:12;99001.01;;;11.50;100.00
25664;BME280;13522;50.018;20.014;2022-09-20T17:38:24;99007.44;;;11.48;100.00
25664;BME280;13522;50.018;20.014;2022-09-20T17:41:39;99007.05;;;11.43;100.00
25664;BME280;13522;50.018;20.014;2022-09-20T17:44:52;99016.41;;;11.37;100.00
25664;BME280;13522;50.018;20.014;2022-09-20T17:48:04;99011.94;;;11.38;100.00
25664;BME280;13522;50.018;20.014;2022-09-20T17:51:17;99013.90;;;11.35;100.00
25664;BME280;13522;50.018;20.014;2022-09-20T17:54:30;99026.50;;;11.33;100.00
25664;BME280;13522;50.018;20.014;2022-09-20T17:57:42;99015.86;;;11.33;100.00
25664;BME280;13522;50.018;20.014;2022-09-20T18:00:54;99018.12;;;11.28;100.00
25664;BME280;13522;50.018;20.014;2022-09-20T18:04:17;99022.04;;;11.24;100.00
25664;BME280;13522;50.018;20.014;2022-09-20T18:07:30;99019.64;;;11.21;100.00
25664;BME280;13522;50.018;20.014;2022-09-20T18:10:41;99026.23;;;11.17;100.00
25664;BME280;13522;50.018;20.014;2022-09-20T18:14:07;99022.87;;;11.15;100.00
25664;BME280;13522;50.018;20.014;2022-09-20T18:17:19;99032.39;;;11.18;100.00
25664;BME280;13522;50.018;20.014;2022-09-20T18:20:31;99032.23;;;11.19;100.00
25664;BME280;13522;50.018;20.014;2022-09-20T18:23:45;99030.72;;;11.17;100.00
25664;BME280;13522;50.018;20.014;2022-09-20T18:26:58;99035.20;;;11.16;100.00
25664;BME280;13522;50.018;20.014;2022-09-20T18:30:12;99040.77;;;11.13;100.00
25664;BME280;13522;50.018;20.014;2022-09-20T18:33:26;99045.53;;;11.10;100.00
25664;BME280;13522;50.018;20.014;2022-09-20T18:39:45;99053.36;;;11.11;100.00
25664;BME280;13522;50.018;20.014;2022-09-20T18:43:01;99055.06;;;11.12;100.00
25664;BME280;13522;50.018;20.014;2022-09-20T18:46:16;99066.54;;;11.13;100.00
25664;BME280;13522;50.018;20.014;2022-09-20T18:49:30;99071.27;;;11.09;100.00
25664;BME280;13522;50.018;20.014;2022-09-20T18:52:43;99074.92;;;11.08;100.00
25664;BME280;13522;50.018;20.014;2022-09-20T18:55:59;99083.86;;;11.07;100.00
25664;BME280;13522;50.018;20.014;2022-09-20T18:59:25;99079.54;;;11.06;100.00
25664;BME280;13522;50.018;20.014;2022-09-20T19:02:54;99085.96;;;11.04;100.00